Time,TemperatureF,DewpointF,PressureIn,WindDirection,WindDirectionDegrees,WindSpeedMPH,WindSpeedGustMPH,Humidity,HourlyPrecipIn,Conditions,Clouds,dailyrainin,SoftwareType,DateUTC
2013-06-08 00:05:00,52.5,52.5,29.83,North,0,0.2,3.0,100,0.13,,,0.00,meteo_script,2013-06-08 04:05:00,
2013-06-08 00:10:00,52.6,52.6,29.82,SSW,208,0.3,3.0,100,0.14,,,0.01,meteo_script,2013-06-08 04:10:00,
2013-06-08 00:15:00,52.6,52.6,29.83,North,0,0.3,2.0,100,0.16,,,0.04,meteo_script,2013-06-08 04:15:00,
2013-06-08 00:25:00,52.6,52.6,29.82,WSW,242,0.1,2.0,100,0.16,,,0.07,meteo_script,2013-06-08 04:25:00,
2013-06-08 00:30:00,52.6,52.6,29.82,North,0,0.1,3.0,100,0.14,,,0.08,meteo_script,2013-06-08 04:30:00,
2013-06-08 00:35:00,52.6,52.6,29.81,NW,317,0.2,4.0,100,0.14,,,0.09,meteo_script,2013-06-08 04:35:00,
2013-06-08 00:40:00,52.6,52.6,29.81,West,269,0.3,3.0,100,0.14,,,0.10,meteo_script,2013-06-08 04:40:00,
2013-06-08 00:45:00,52.5,52.5,29.81,WNW,292,0.4,3.0,100,0.13,,,0.10,meteo_script,2013-06-08 04:45:00,
2013-06-08 00:50:00,52.5,52.5,29.80,NW,307,0.4,4.0,100,0.12,,,0.10,meteo_script,2013-06-08 04:50:00,
2013-06-08 00:55:00,52.5,52.5,29.79,WNW,286,0.2,1.0,100,0.12,,,0.10,meteo_script,2013-06-08 04:55:00,
2013-06-08 01:00:00,52.5,52.5,29.78,NW,317,0.3,6.0,100,0.11,,,0.11,meteo_script,2013-06-08 05:00:00,
2013-06-08 01:05:00,52.4,52.4,29.78,NW,311,0.5,4.0,100,0.11,,,0.11,meteo_script,2013-06-08 05:05:00,
2013-06-08 01:15:00,52.4,52.4,29.80,West,266,0.3,3.0,100,0.12,,,0.16,meteo_script,2013-06-08 05:15:00,
2013-06-08 01:20:00,52.4,52.4,29.79,NW,315,0.3,3.0,100,0.14,,,0.20,meteo_script,2013-06-08 05:20:00,
2013-06-08 01:25:00,52.3,52.3,29.78,NW,310,0.2,1.0,100,0.22,,,0.29,meteo_script,2013-06-08 05:25:00,
2013-06-08 01:35:00,52.3,52.3,29.78,North,351,0.2,2.0,100,0.27,,,0.36,meteo_script,2013-06-08 05:35:00,
2013-06-08 01:40:00,52.2,52.2,29.78,North,351,0.3,2.0,100,0.34,,,0.44,meteo_script,2013-06-08 05:40:00,
2013-06-08 01:45:00,52.2,52.2,29.78,North,351,0.2,1.0,100,0.39,,,0.49,meteo_script,2013-06-08 05:45:00,
2013-06-08 01:55:00,52.2,52.2,29.78,North,351,0.0,1.0,100,0.49,,,0.59,meteo_script,2013-06-08 05:55:00,
2013-06-08 02:00:00,52.1,52.1,29.77,North,352,0.0,1.0,100,0.52,,,0.63,meteo_script,2013-06-08 06:00:00,
2013-06-08 02:05:00,52.1,52.1,29.77,North,352,0.0,1.0,100,0.53,,,0.64,meteo_script,2013-06-08 06:05:00,
2013-06-08 02:15:00,52.1,52.1,29.77,North,352,0.1,1.0,100,0.52,,,0.68,meteo_script,2013-06-08 06:15:00,
2013-06-08 02:20:00,52.2,52.2,29.76,North,0,0.0,1.0,100,0.51,,,0.71,meteo_script,2013-06-08 06:20:00,
2013-06-08 02:30:00,52.1,52.1,29.75,West,264,0.1,1.0,100,0.43,,,0.76,meteo_script,2013-06-08 06:30:00,
2013-06-08 02:35:00,52.0,52.0,29.73,WNW,293,0.2,3.0,100,0.42,,,0.78,meteo_script,2013-06-08 06:35:00,
2013-06-08 02:40:00,52.1,52.1,29.73,North,0,0.1,0.0,100,0.35,,,0.79,meteo_script,2013-06-08 06:40:00,
2013-06-08 02:50:00,52.0,52.0,29.73,WNW,282,0.1,2.0,100,0.26,,,0.80,meteo_script,2013-06-08 06:50:00,
2013-06-08 02:55:00,52.1,52.1,29.73,West,267,0.2,3.0,100,0.21,,,0.80,meteo_script,2013-06-08 06:55:00,
2013-06-08 03:00:00,52.1,52.1,29.73,North,0,0.2,1.0,100,0.17,,,0.80,meteo_script,2013-06-08 07:00:00,
2013-06-08 03:10:00,52.0,52.0,29.72,North,0,0.0,1.0,100,0.14,,,0.80,meteo_script,2013-06-08 07:10:00,
2013-06-08 03:15:00,52.0,52.0,29.72,North,0,0.0,1.0,100,0.12,,,0.80,meteo_script,2013-06-08 07:15:00,
2013-06-08 03:25:00,52.0,52.0,29.72,NNW,328,0.1,2.0,100,0.06,,,0.80,meteo_script,2013-06-08 07:25:00,
2013-06-08 03:30:00,52.1,52.1,29.72,North,0,0.1,2.0,100,0.04,,,0.80,meteo_script,2013-06-08 07:30:00,
2013-06-08 03:35:00,52.1,52.1,29.71,West,270,0.0,1.0,100,0.02,,,0.80,meteo_script,2013-06-08 07:35:00,
2013-06-08 03:45:00,52.1,52.1,29.71,North,0,0.0,0.0,100,0.01,,,0.81,meteo_script,2013-06-08 07:45:00,
2013-06-08 03:50:00,52.1,52.1,29.70,North,0,0.0,0.0,100,0.01,,,0.81,meteo_script,2013-06-08 07:50:00,
2013-06-08 04:00:00,52.1,52.1,29.70,North,0,0.0,0.0,100,0.01,,,0.81,meteo_script,2013-06-08 08:00:00,
2013-06-08 04:05:00,52.1,52.1,29.70,North,0,0.0,0.0,100,0.02,,,0.82,meteo_script,2013-06-08 08:05:00,
2013-06-08 04:10:00,52.1,52.1,29.69,North,0,0.0,1.0,100,0.02,,,0.82,meteo_script,2013-06-08 08:10:00,
2013-06-08 04:20:00,52.1,52.1,29.69,North,0,0.0,1.0,100,0.02,,,0.82,meteo_script,2013-06-08 08:20:00,
2013-06-08 04:30:00,52.2,52.2,29.68,West,270,0.0,2.0,100,0.02,,,0.82,meteo_script,2013-06-08 08:30:00,
2013-06-08 04:35:00,52.2,52.2,29.68,North,0,0.0,0.0,100,0.02,,,0.82,meteo_script,2013-06-08 08:35:00,
2013-06-08 04:40:00,52.2,52.2,29.68,North,0,0.0,0.0,100,0.01,,,0.82,meteo_script,2013-06-08 08:40:00,
2013-06-08 04:45:00,52.2,52.2,29.68,West,270,0.0,2.0,100,0.01,,,0.82,meteo_script,2013-06-08 08:45:00,
2013-06-08 04:55:00,52.3,52.3,29.67,North,0,0.0,2.0,100,0.01,,,0.82,meteo_script,2013-06-08 08:55:00,
2013-06-08 05:00:00,52.3,52.3,29.67,North,0,0.1,2.0,100,0.01,,,0.82,meteo_script,2013-06-08 09:00:00,
2013-06-08 05:05:00,52.3,52.3,29.67,West,275,0.1,1.0,100,0.00,,,0.82,meteo_script,2013-06-08 09:05:00,
2013-06-08 05:15:00,52.3,52.3,29.66,WSW,244,0.1,1.0,100,0.01,,,0.83,meteo_script,2013-06-08 09:15:00,
2013-06-08 05:20:00,52.3,52.3,29.66,North,0,0.0,1.0,100,0.01,,,0.83,meteo_script,2013-06-08 09:20:00,
2013-06-08 05:25:00,52.3,52.3,29.66,North,0,0.0,0.0,100,0.01,,,0.83,meteo_script,2013-06-08 09:25:00,
2013-06-08 05:35:00,52.4,52.4,29.66,North,0,0.1,1.0,100,0.01,,,0.83,meteo_script,2013-06-08 09:35:00,
2013-06-08 05:40:00,52.5,52.5,29.66,WSW,244,0.1,1.0,100,0.01,,,0.83,meteo_script,2013-06-08 09:40:00,
2013-06-08 05:45:00,52.5,52.5,29.66,North,0,0.0,0.0,100,0.01,,,0.83,meteo_script,2013-06-08 09:45:00,
2013-06-08 05:55:00,52.5,52.5,29.65,WSW,244,0.1,2.0,100,0.01,,,0.83,meteo_script,2013-06-08 09:55:00,
2013-06-08 06:00:00,52.5,52.5,29.65,WSW,244,0.1,1.0,100,0.01,,,0.83,meteo_script,2013-06-08 10:00:00,
2013-06-08 06:10:00,52.7,52.7,29.65,North,0,0.0,0.0,100,0.01,,,0.83,meteo_script,2013-06-08 10:10:00,
2013-06-08 06:15:00,52.7,52.7,29.65,North,0,0.0,1.0,100,0.00,,,0.83,meteo_script,2013-06-08 10:15:00,
2013-06-08 06:25:00,52.7,52.7,29.65,WSW,244,0.1,1.0,100,0.00,,,0.83,meteo_script,2013-06-08 10:25:00,
2013-06-08 06:30:00,52.8,52.8,29.65,North,0,0.1,2.0,100,0.00,,,0.83,meteo_script,2013-06-08 10:30:00,
2013-06-08 06:40:00,53.0,53.0,29.64,South,184,0.1,1.0,100,0.00,,,0.83,meteo_script,2013-06-08 10:40:00,
2013-06-08 06:45:00,53.1,53.1,29.64,South,191,0.1,2.0,100,0.01,,,0.84,meteo_script,2013-06-08 10:45:00,
2013-06-08 06:50:00,53.3,53.3,29.64,SW,224,0.1,3.0,100,0.01,,,0.84,meteo_script,2013-06-08 10:50:00,
2013-06-08 07:00:00,53.5,53.5,29.65,WNW,295,0.2,1.0,100,0.01,,,0.84,meteo_script,2013-06-08 11:00:00,
2013-06-08 07:05:00,53.5,53.5,29.65,North,0,0.1,1.0,100,0.01,,,0.84,meteo_script,2013-06-08 11:05:00,
2013-06-08 07:10:00,53.5,53.5,29.65,WNW,302,0.2,2.0,100,0.01,,,0.84,meteo_script,2013-06-08 11:10:00,
2013-06-08 07:20:00,53.5,53.5,29.66,WNW,287,0.2,3.0,100,0.01,,,0.84,meteo_script,2013-06-08 11:20:00,
2013-06-08 07:25:00,53.5,53.5,29.66,West,274,0.3,2.0,100,0.01,,,0.84,meteo_script,2013-06-08 11:25:00,
2013-06-08 07:35:00,53.5,53.5,29.65,West,274,0.2,2.0,100,0.01,,,0.84,meteo_script,2013-06-08 11:35:00,
2013-06-08 07:40:00,53.6,53.6,29.65,West,274,0.2,3.0,100,0.01,,,0.84,meteo_script,2013-06-08 11:40:00,
2013-06-08 07:45:00,53.8,53.8,29.65,West,263,0.2,2.0,100,0.00,,,0.84,meteo_script,2013-06-08 11:45:00,
2013-06-08 07:55:00,53.9,53.9,29.65,North,0,0.1,1.0,100,0.00,,,0.84,meteo_script,2013-06-08 11:55:00,
2013-06-08 08:00:00,54.0,54.0,29.65,West,263,0.1,2.0,100,0.00,,,0.84,meteo_script,2013-06-08 12:00:00,
2013-06-08 08:10:00,54.5,54.5,29.66,West,265,0.1,1.0,100,0.00,,,0.84,meteo_script,2013-06-08 12:10:00,
2013-06-08 08:15:00,54.5,54.5,29.66,North,0,0.1,2.0,100,0.00,,,0.84,meteo_script,2013-06-08 12:15:00,
2013-06-08 08:25:00,54.3,54.3,29.66,NW,323,0.3,2.0,100,0.00,,,0.84,meteo_script,2013-06-08 12:25:00,
2013-06-08 08:35:00,54.6,54.6,29.68,NW,324,0.2,2.0,100,0.00,,,0.84,meteo_script,2013-06-08 12:35:00,
2013-06-08 08:40:00,54.7,54.7,29.69,NW,324,0.3,2.0,100,0.00,,,0.84,meteo_script,2013-06-08 12:40:00,
2013-06-08 08:50:00,54.9,54.9,29.70,NNW,328,0.5,2.0,100,0.00,,,0.84,meteo_script,2013-06-08 12:50:00,
2013-06-08 08:55:00,55.1,55.1,29.71,NNW,328,0.3,2.0,100,0.00,,,0.84,meteo_script,2013-06-08 12:55:00,
2013-06-08 09:05:00,55.5,55.5,29.71,NNW,328,0.2,2.0,100,0.00,,,0.84,meteo_script,2013-06-08 13:05:00,
2013-06-08 09:10:00,55.8,55.8,29.71,NNW,328,0.3,3.0,100,0.00,,,0.84,meteo_script,2013-06-08 13:10:00,
2013-06-08 09:15:00,56.0,56.0,29.72,NNW,328,0.2,2.0,100,0.00,,,0.84,meteo_script,2013-06-08 13:15:00,
2013-06-08 09:25:00,56.7,56.7,29.72,North,0,0.1,1.0,100,0.00,,,0.84,meteo_script,2013-06-08 13:25:00,
2013-06-08 09:30:00,56.8,56.8,29.73,NNW,328,0.2,2.0,100,0.00,,,0.84,meteo_script,2013-06-08 13:30:00,
2013-06-08 09:40:00,57.3,57.3,29.73,NNW,328,0.1,2.0,100,0.00,,,0.84,meteo_script,2013-06-08 13:40:00,
2013-06-08 09:45:00,57.7,57.7,29.73,NNW,328,0.1,1.0,100,0.00,,,0.84,meteo_script,2013-06-08 13:45:00,
2013-06-08 09:55:00,58.2,58.2,29.73,NNW,328,0.3,3.0,100,0.00,,,0.84,meteo_script,2013-06-08 13:55:00,
2013-06-08 10:00:00,58.6,58.6,29.73,NNW,328,0.2,2.0,100,0.00,,,0.84,meteo_script,2013-06-08 14:00:00,
2013-06-08 10:05:00,58.9,58.9,29.73,NNW,328,0.3,2.0,100,0.00,,,0.84,meteo_script,2013-06-08 14:05:00,
2013-06-08 10:15:00,59.8,59.8,29.74,NNW,328,0.2,1.0,100,0.00,,,0.84,meteo_script,2013-06-08 14:15:00,
2013-06-08 10:20:00,60.3,60.3,29.73,SW,229,0.1,5.0,100,0.00,,,0.84,meteo_script,2013-06-08 14:20:00,
2013-06-08 10:25:00,61.0,61.0,29.74,WSW,239,0.2,2.0,100,0.00,,,0.84,meteo_script,2013-06-08 14:25:00,
2013-06-08 10:35:00,61.7,61.7,29.74,West,274,0.4,2.0,100,0.00,,,0.84,meteo_script,2013-06-08 14:35:00,
2013-06-08 10:40:00,62.3,62.3,29.75,West,274,0.3,2.0,100,0.00,,,0.84,meteo_script,2013-06-08 14:40:00,
2013-06-08 10:50:00,63.1,63.1,29.75,West,275,0.2,2.0,100,0.00,,,0.84,meteo_script,2013-06-08 14:50:00,
2013-06-08 10:55:00,63.4,63.4,29.75,West,276,0.2,2.0,100,0.00,,,0.84,meteo_script,2013-06-08 14:55:00,
2013-06-08 11:00:00,64.3,64.3,29.76,North,0,0.2,3.0,100,0.00,,,0.84,meteo_script,2013-06-08 15:00:00,
2013-06-08 11:10:00,64.9,64.9,29.77,North,0,0.1,1.0,100,0.00,,,0.84,meteo_script,2013-06-08 15:10:00,
2013-06-08 11:15:00,64.9,64.9,29.77,West,275,0.1,2.0,100,0.00,,,0.84,meteo_script,2013-06-08 15:15:00,
2013-06-08 11:25:00,66.3,66.3,29.78,West,277,0.3,2.0,100,0.00,,,0.84,meteo_script,2013-06-08 15:25:00,
2013-06-08 11:30:00,67.2,67.2,29.78,West,277,0.5,2.0,100,0.00,,,0.84,meteo_script,2013-06-08 15:30:00,
2013-06-08 11:40:00,69.4,69.1,29.79,West,280,0.8,3.0,99,0.00,,,0.84,meteo_script,2013-06-08 15:40:00,
2013-06-08 11:45:00,69.9,69.0,29.79,WNW,285,0.8,3.0,96,0.00,,,0.84,meteo_script,2013-06-08 15:45:00,
2013-06-08 11:55:00,69.9,68.8,29.79,West,272,0.8,3.0,96,0.00,,,0.84,meteo_script,2013-06-08 15:55:00,
2013-06-08 12:00:00,70.9,70.0,29.79,West,272,0.5,2.0,97,0.00,,,0.84,meteo_script,2013-06-08 16:00:00,
2013-06-08 12:10:00,72.2,70.6,29.79,West,272,0.5,3.0,94,0.00,,,0.84,meteo_script,2013-06-08 16:10:00,
2013-06-08 12:15:00,73.8,71.4,29.80,SW,233,0.9,4.0,92,0.00,,,0.84,meteo_script,2013-06-08 16:15:00,
2013-06-08 12:20:00,75.1,72.1,29.80,West,269,1.0,3.0,90,0.00,,,0.84,meteo_script,2013-06-08 16:20:00,
2013-06-08 12:30:00,74.8,71.4,29.80,West,276,1.0,3.0,89,0.00,,,0.84,meteo_script,2013-06-08 16:30:00,
2013-06-08 12:35:00,74.0,70.2,29.80,NW,306,1.1,4.0,88,0.00,,,0.84,meteo_script,2013-06-08 16:35:00,
2013-06-08 12:45:00,75.8,72.1,29.80,NW,308,1.4,3.0,88,0.00,,,0.84,meteo_script,2013-06-08 16:45:00,
2013-06-08 12:50:00,77.1,73.2,29.80,NW,308,0.8,2.0,87,0.00,,,0.84,meteo_script,2013-06-08 16:50:00,
2013-06-08 12:55:00,77.8,73.1,29.80,WSW,239,0.8,5.0,85,0.00,,,0.84,meteo_script,2013-06-08 16:55:00,
2013-06-08 13:05:00,77.9,73.5,29.80,West,269,1.0,4.0,86,0.00,,,0.84,meteo_script,2013-06-08 17:05:00,
2013-06-08 13:10:00,78.8,74.0,29.80,WNW,292,0.9,3.0,85,0.00,,,0.84,meteo_script,2013-06-08 17:10:00,
2013-06-08 13:15:00,79.4,74.3,29.80,WNW,288,0.8,3.0,84,0.00,,,0.84,meteo_script,2013-06-08 17:15:00,
2013-06-08 13:25:00,77.7,72.3,29.81,SSW,213,1.2,5.0,83,0.00,,,0.84,meteo_script,2013-06-08 17:25:00,
2013-06-08 13:30:00,78.3,72.8,29.81,SW,214,1.5,4.0,83,0.00,,,0.84,meteo_script,2013-06-08 17:30:00,
2013-06-08 13:40:00,80.6,74.6,29.81,SW,228,1.5,4.0,82,0.00,,,0.84,meteo_script,2013-06-08 17:40:00,
2013-06-08 13:45:00,81.0,73.9,29.81,WSW,243,1.2,4.0,79,0.00,,,0.84,meteo_script,2013-06-08 17:45:00,
2013-06-08 13:50:00,80.9,74.4,29.81,WSW,243,1.1,4.0,80,0.00,,,0.84,meteo_script,2013-06-08 17:50:00,
2013-06-08 14:00:00,80.4,73.2,29.82,SSW,198,1.6,4.0,78,0.00,,,0.84,meteo_script,2013-06-08 18:00:00,
2013-06-08 14:05:00,78.8,72.1,29.82,SSW,199,1.3,4.0,80,0.00,,,0.84,meteo_script,2013-06-08 18:05:00,
2013-06-08 14:15:00,77.1,72.2,29.82,SW,232,1.2,3.0,85,0.00,,,0.84,meteo_script,2013-06-08 18:15:00,
2013-06-08 14:20:00,78.0,72.4,29.82,WSW,237,1.0,3.0,83,0.00,,,0.84,meteo_script,2013-06-08 18:20:00,
2013-06-08 14:25:00,77.9,72.3,29.82,WSW,237,0.8,3.0,83,0.00,,,0.84,meteo_script,2013-06-08 18:25:00,
2013-06-08 14:35:00,77.2,71.8,29.83,North,0,0.5,3.0,83,0.00,,,0.84,meteo_script,2013-06-08 18:35:00,
2013-06-08 14:40:00,77.4,72.5,29.83,WSW,237,0.6,3.0,84,0.00,,,0.84,meteo_script,2013-06-08 18:40:00,
2013-06-08 14:50:00,77.8,71.8,29.83,WNW,282,0.8,4.0,82,0.00,,,0.84,meteo_script,2013-06-08 18:50:00,
2013-06-08 14:55:00,78.0,72.3,29.83,West,267,1.2,4.0,82,0.00,,,0.84,meteo_script,2013-06-08 18:55:00,
2013-06-08 15:00:00,78.0,72.2,29.83,West,267,1.0,4.0,82,0.00,,,0.84,meteo_script,2013-06-08 19:00:00,
2013-06-08 15:10:00,77.3,72.1,29.83,West,267,0.8,3.0,84,0.00,,,0.84,meteo_script,2013-06-08 19:10:00,
2013-06-08 15:15:00,77.2,71.3,29.84,West,263,1.2,4.0,82,0.00,,,0.84,meteo_script,2013-06-08 19:15:00,
2013-06-08 15:25:00,76.4,71.6,29.84,SSW,210,1.3,4.0,85,0.00,,,0.84,meteo_script,2013-06-08 19:25:00,
2013-06-08 15:30:00,76.5,71.8,29.84,SSW,210,1.5,4.0,85,0.00,,,0.84,meteo_script,2013-06-08 19:30:00,
2013-06-08 15:35:00,77.2,72.8,29.84,SSW,210,1.2,3.0,86,0.00,,,0.84,meteo_script,2013-06-08 19:35:00,
2013-06-08 15:45:00,79.1,72.6,29.84,WNW,293,1.2,3.0,80,0.00,,,0.84,meteo_script,2013-06-08 19:45:00,
2013-06-08 15:55:00,77.9,71.2,29.85,WNW,288,0.9,4.0,80,0.00,,,0.84,meteo_script,2013-06-08 19:55:00,
2013-06-08 16:00:00,78.0,71.3,29.85,WNW,288,0.8,3.0,80,0.00,,,0.84,meteo_script,2013-06-08 20:00:00,
2013-06-08 16:05:00,78.0,71.5,29.85,West,275,0.9,3.0,80,0.00,,,0.84,meteo_script,2013-06-08 20:05:00,
2013-06-08 16:10:00,77.7,72.1,29.85,West,267,0.8,2.0,83,0.00,,,0.84,meteo_script,2013-06-08 20:10:00,
2013-06-08 16:20:00,77.2,71.2,29.85,NNW,334,1.2,3.0,81,0.00,,,0.84,meteo_script,2013-06-08 20:20:00,
2013-06-08 16:25:00,77.2,70.9,29.85,NW,316,0.8,3.0,81,0.00,,,0.84,meteo_script,2013-06-08 20:25:00,
2013-06-08 16:30:00,77.8,71.4,29.85,NW,316,0.5,3.0,81,0.00,,,0.84,meteo_script,2013-06-08 20:30:00,
2013-06-08 16:40:00,77.8,70.7,29.86,WSW,242,1.1,6.0,79,0.00,,,0.84,meteo_script,2013-06-08 20:40:00,
2013-06-08 16:45:00,77.3,70.7,29.86,West,269,1.2,3.0,80,0.00,,,0.84,meteo_script,2013-06-08 20:45:00,
2013-06-08 16:55:00,76.4,70.0,29.87,West,269,1.1,3.0,80,0.00,,,0.84,meteo_script,2013-06-08 20:55:00,
2013-06-08 17:00:00,76.5,70.0,29.87,West,273,1.2,4.0,80,0.00,,,0.84,meteo_script,2013-06-08 21:00:00,
2013-06-08 17:05:00,76.3,70.3,29.88,West,273,0.9,3.0,81,0.00,,,0.84,meteo_script,2013-06-08 21:05:00,
2013-06-08 17:15:00,75.9,70.0,29.88,West,273,0.8,3.0,82,0.00,,,0.84,meteo_script,2013-06-08 21:15:00,
2013-06-08 17:20:00,75.7,69.5,29.88,West,273,1.0,4.0,81,0.00,,,0.84,meteo_script,2013-06-08 21:20:00,
2013-06-08 17:30:00,75.0,69.0,29.88,West,273,1.0,4.0,81,0.00,,,0.84,meteo_script,2013-06-08 21:30:00,
2013-06-08 17:35:00,74.6,69.1,29.89,West,273,1.0,3.0,83,0.00,,,0.84,meteo_script,2013-06-08 21:35:00,
2013-06-08 17:40:00,74.3,68.8,29.89,West,273,1.3,4.0,83,0.00,,,0.84,meteo_script,2013-06-08 21:40:00,
2013-06-08 17:45:00,74.0,68.5,29.90,WNW,283,1.6,5.0,83,0.00,,,0.84,meteo_script,2013-06-08 21:45:00,
2013-06-08 17:55:00,73.3,68.2,29.90,WNW,284,1.1,3.0,84,0.00,,,0.84,meteo_script,2013-06-08 21:55:00,
2013-06-08 18:00:00,73.1,68.4,29.90,WNW,284,1.2,3.0,85,0.00,,,0.84,meteo_script,2013-06-08 22:00:00,
2013-06-08 18:05:00,72.9,68.4,29.90,WNW,284,1.2,3.0,85,0.00,,,0.84,meteo_script,2013-06-08 22:05:00,
2013-06-08 18:15:00,72.6,67.9,29.92,WNW,291,1.6,4.0,85,0.00,,,0.84,meteo_script,2013-06-08 22:15:00,
2013-06-08 18:20:00,72.3,67.9,29.92,West,280,1.5,4.0,86,0.00,,,0.84,meteo_script,2013-06-08 22:20:00,
2013-06-08 18:30:00,71.8,68.1,29.92,West,280,0.2,1.0,88,0.00,,,0.84,meteo_script,2013-06-08 22:30:00,
2013-06-08 18:35:00,71.6,68.2,29.92,West,280,0.2,2.0,89,0.00,,,0.84,meteo_script,2013-06-08 22:35:00,
2013-06-08 18:45:00,71.1,67.3,29.93,West,280,0.7,2.0,88,0.00,,,0.84,meteo_script,2013-06-08 22:45:00,
2013-06-08 18:50:00,70.8,67.0,29.93,West,280,0.7,3.0,87,0.00,,,0.84,meteo_script,2013-06-08 22:50:00,
2013-06-08 19:00:00,70.4,66.7,29.94,West,280,0.9,2.0,88,0.00,,,0.84,meteo_script,2013-06-08 23:00:00,
2013-06-08 19:05:00,70.2,66.5,29.94,West,268,1.0,3.0,88,0.00,,,0.84,meteo_script,2013-06-08 23:05:00,
2013-06-08 19:10:00,70.0,66.2,29.94,West,276,1.0,3.0,88,0.00,,,0.84,meteo_script,2013-06-08 23:10:00,
2013-06-08 19:20:00,69.7,66.3,29.95,West,276,0.4,2.0,89,0.00,,,0.84,meteo_script,2013-06-08 23:20:00,
2013-06-08 19:25:00,69.5,66.0,29.95,West,276,0.3,2.0,88,0.00,,,0.84,meteo_script,2013-06-08 23:25:00,
2013-06-08 19:35:00,69.1,66.4,29.95,North,0,0.0,0.0,91,0.00,,,0.84,meteo_script,2013-06-08 23:35:00,
2013-06-08 19:40:00,68.8,66.2,29.95,North,0,0.0,1.0,91,0.00,,,0.84,meteo_script,2013-06-08 23:40:00,
2013-06-08 19:45:00,68.7,66.2,29.94,North,0,0.0,0.0,91,0.00,,,0.84,meteo_script,2013-06-08 23:45:00,
2013-06-08 19:55:00,68.1,66.0,29.94,North,0,0.0,0.0,93,0.00,,,0.84,meteo_script,2013-06-08 23:55:00,
2013-06-08 20:00:00,67.9,66.1,29.95,North,0,0.0,0.0,94,0.00,,,0.84,meteo_script,2013-06-09 00:00:00,
2013-06-08 20:10:00,67.6,65.8,29.95,North,0,0.0,1.0,94,0.00,,,0.84,meteo_script,2013-06-09 00:10:00,
2013-06-08 20:15:00,67.5,65.7,29.95,North,0,0.0,0.0,94,0.00,,,0.84,meteo_script,2013-06-09 00:15:00,
2013-06-08 20:20:00,67.3,65.5,29.96,West,276,0.1,1.0,94,0.00,,,0.84,meteo_script,2013-06-09 00:20:00,
2013-06-08 20:30:00,67.0,65.2,29.96,West,276,0.1,1.0,94,0.00,,,0.84,meteo_script,2013-06-09 00:30:00,
2013-06-08 20:35:00,66.8,65.1,29.96,West,276,0.2,2.0,94,0.00,,,0.84,meteo_script,2013-06-09 00:35:00,
2013-06-08 20:45:00,66.3,64.9,29.96,North,0,0.0,0.0,95,0.00,,,0.84,meteo_script,2013-06-09 00:45:00,
2013-06-08 20:50:00,66.1,65.1,29.96,North,0,0.0,1.0,96,0.00,,,0.84,meteo_script,2013-06-09 00:50:00,
2013-06-08 20:55:00,65.8,64.8,29.97,North,0,0.0,0.0,96,0.00,,,0.84,meteo_script,2013-06-09 00:55:00,
2013-06-08 21:05:00,65.7,64.6,29.97,North,0,0.0,1.0,96,0.00,,,0.84,meteo_script,2013-06-09 01:05:00,
2013-06-08 21:10:00,65.6,64.6,29.97,West,276,0.0,1.0,96,0.00,,,0.84,meteo_script,2013-06-09 01:10:00,
2013-06-08 21:15:00,65.5,64.4,29.97,North,0,0.0,1.0,96,0.00,,,0.84,meteo_script,2013-06-09 01:15:00,
2013-06-08 21:25:00,65.2,64.4,29.97,West,276,0.0,1.0,97,0.00,,,0.84,meteo_script,2013-06-09 01:25:00,
2013-06-08 21:30:00,65.1,64.3,29.98,North,0,0.0,1.0,97,0.00,,,0.84,meteo_script,2013-06-09 01:30:00,
2013-06-08 21:35:00,64.9,64.4,29.98,North,0,0.0,0.0,98,0.00,,,0.84,meteo_script,2013-06-09 01:35:00,
2013-06-08 21:45:00,64.8,64.1,29.98,North,0,0.0,0.0,97,0.00,,,0.84,meteo_script,2013-06-09 01:45:00,
2013-06-08 21:50:00,64.7,64.2,29.99,North,0,0.0,0.0,98,0.00,,,0.84,meteo_script,2013-06-09 01:50:00,
2013-06-08 22:00:00,64.5,64.2,29.99,North,0,0.0,0.0,99,0.00,,,0.84,meteo_script,2013-06-09 02:00:00,
2013-06-08 22:05:00,64.4,64.1,29.99,North,0,0.0,0.0,99,0.00,,,0.84,meteo_script,2013-06-09 02:05:00,
2013-06-08 22:10:00,64.2,63.9,29.99,North,0,0.0,0.0,99,0.00,,,0.84,meteo_script,2013-06-09 02:10:00,
2013-06-08 22:20:00,63.6,63.6,30.00,North,0,0.0,0.0,100,0.00,,,0.84,meteo_script,2013-06-09 02:20:00,
2013-06-08 22:25:00,63.4,63.4,30.00,North,0,0.0,0.0,100,0.00,,,0.84,meteo_script,2013-06-09 02:25:00,
2013-06-08 22:35:00,63.3,63.3,30.00,North,0,0.0,0.0,100,0.00,,,0.84,meteo_script,2013-06-09 02:35:00,
2013-06-08 22:45:00,63.2,63.2,30.00,North,0,0.0,0.0,100,0.00,,,0.84,meteo_script,2013-06-09 02:45:00,
2013-06-08 22:55:00,62.3,62.3,30.01,North,0,0.0,0.0,100,0.00,,,0.84,meteo_script,2013-06-09 02:55:00,
2013-06-08 23:00:00,62.2,62.2,30.01,North,0,0.0,0.0,100,0.00,,,0.84,meteo_script,2013-06-09 03:00:00,
2013-06-08 23:10:00,62.2,62.2,30.01,North,0,0.0,0.0,100,0.00,,,0.84,meteo_script,2013-06-09 03:10:00,
2013-06-08 23:15:00,61.9,61.9,30.01,North,0,0.0,0.0,100,0.00,,,0.84,meteo_script,2013-06-09 03:15:00,
2013-06-08 23:20:00,61.6,61.6,30.01,North,0,0.0,0.0,100,0.00,,,0.84,meteo_script,2013-06-09 03:20:00,
2013-06-08 23:30:00,61.3,61.3,30.01,North,0,0.0,0.0,100,0.00,,,0.84,meteo_script,2013-06-09 03:30:00,
2013-06-08 23:35:00,61.4,61.4,30.02,North,0,0.0,0.0,100,0.00,,,0.84,meteo_script,2013-06-09 03:35:00,
2013-06-08 23:40:00,61.5,61.5,30.02,North,0,0.0,0.0,100,0.00,,,0.84,meteo_script,2013-06-09 03:40:00,
2013-06-08 23:50:00,61.5,61.5,30.02,North,0,0.0,0.0,100,0.00,,,0.84,meteo_script,2013-06-09 03:50:00,
2013-06-08 23:55:00,61.4,61.4,30.02,North,0,0.0,0.0,100,0.00,,,0.84,meteo_script,2013-06-09 03:55:00,